sensor_id;sensor_type;location;lat;lon;timestamp;P1;durP1;ratioP1;P2;durP2;ratioP2
65581;SDS011;52231;40.090;18.348;2023-08-31T00:01:53;14.20;;;3.13;;
65581;SDS011;52231;40.090;18.348;2023-08-31T00:04:21;17.67;;;3.22;;
65581;SDS011;52231;40.090;18.348;2023-08-31T00:09:18;14.20;;;2.95;;
65581;SDS011;52231;40.090;18.348;2023-08-31T00:11:46;14.43;;;3.10;;
65581;SDS011;52231;40.090;18.348;2023-08-31T00:14:14;15.90;;;3.28;;
65581;SDS011;52231;40.090;18.348;2023-08-31T00:16:50;16.92;;;3.10;;
65581;SDS011;52231;40.090;18.348;2023-08-31T00:19:18;14.02;;;3.35;;
65581;SDS011;52231;40.090;18.348;2023-08-31T00:21:46;15.68;;;2.78;;
65581;SDS011;52231;40.090;18.348;2023-08-31T00:24:16;15.75;;;3.53;;
65581;SDS011;52231;40.090;18.348;2023-08-31T00:26:44;12.90;;;3.20;;
65581;SDS011;52231;40.090;18.348;2023-08-31T00:29:12;12.05;;;2.60;;
65581;SDS011;52231;40.090;18.348;2023-08-31T00:31:43;14.65;;;3.35;;
65581;SDS011;52231;40.090;18.348;2023-08-31T00:36:43;13.43;;;2.90;;
65581;SDS011;52231;40.090;18.348;2023-08-31T00:39:11;14.13;;;3.40;;
65581;SDS011;52231;40.090;18.348;2023-08-31T00:41:39;11.55;;;2.60;;
65581;SDS011;52231;40.090;18.348;2023-08-31T00:44:08;14.60;;;3.25;;
65581;SDS011;52231;40.090;18.348;2023-08-31T00:46:36;10.80;;;2.83;;
65581;SDS011;52231;40.090;18.348;2023-08-31T00:49:04;11.02;;;2.90;;
65581;SDS011;52231;40.090;18.348;2023-08-31T00:54:00;13.68;;;2.80;;
65581;SDS011;52231;40.090;18.348;2023-08-31T00:56:28;11.10;;;3.22;;
65581;SDS011;52231;40.090;18.348;2023-08-31T00:58:56;10.93;;;2.85;;
65581;SDS011;52231;40.090;18.348;2023-08-31T01:14:44;16.95;;;3.92;;
65581;SDS011;52231;40.090;18.348;2023-08-31T01:17:19;15.98;;;3.42;;
65581;SDS011;52231;40.090;18.348;2023-08-31T01:19:53;10.10;;;2.83;;
65581;SDS011;52231;40.090;18.348;2023-08-31T01:24:58;19.08;;;3.08;;
65581;SDS011;52231;40.090;18.348;2023-08-31T01:27:31;14.23;;;3.40;;
65581;SDS011;52231;40.090;18.348;2023-08-31T01:29:59;15.65;;;3.65;;
65581;SDS011;52231;40.090;18.348;2023-08-31T01:32:27;19.48;;;3.88;;
65581;SDS011;52231;40.090;18.348;2023-08-31T01:34:56;14.25;;;3.65;;
65581;SDS011;52231;40.090;18.348;2023-08-31T01:37:37;17.90;;;3.40;;
65581;SDS011;52231;40.090;18.348;2023-08-31T01:40:17;15.27;;;3.53;;
65581;SDS011;52231;40.090;18.348;2023-08-31T01:42:50;12.57;;;3.40;;
65581;SDS011;52231;40.090;18.348;2023-08-31T01:45:20;12.13;;;3.92;;
65581;SDS011;52231;40.090;18.348;2023-08-31T01:47:50;12.57;;;3.30;;
65581;SDS011;52231;40.090;18.348;2023-08-31T01:50:18;11.48;;;3.20;;
65581;SDS011;52231;40.090;18.348;2023-08-31T01:52:46;10.30;;;3.13;;
65581;SDS011;52231;40.090;18.348;2023-08-31T01:55:14;12.73;;;4.03;;
65581;SDS011;52231;40.090;18.348;2023-08-31T01:57:43;18.45;;;3.90;;
65581;SDS011;52231;40.090;18.348;2023-08-31T02:00:17;11.40;;;3.35;;
65581;SDS011;52231;40.090;18.348;2023-08-31T02:02:47;14.40;;;3.75;;
65581;SDS011;52231;40.090;18.348;2023-08-31T02:05:15;13.23;;;3.80;;
65581;SDS011;52231;40.090;18.348;2023-08-31T02:10:11;14.50;;;3.67;;
65581;SDS011;52231;40.090;18.348;2023-08-31T02:12:42;12.30;;;3.83;;
65581;SDS011;52231;40.090;18.348;2023-08-31T02:15:11;15.18;;;4.45;;
65581;SDS011;52231;40.090;18.348;2023-08-31T02:17:39;15.20;;;4.72;;
65581;SDS011;52231;40.090;18.348;2023-08-31T02:20:07;15.88;;;4.22;;
65581;SDS011;52231;40.090;18.348;2023-08-31T02:22:36;13.70;;;4.00;;
65581;SDS011;52231;40.090;18.348;2023-08-31T02:25:05;15.68;;;4.47;;
65581;SDS011;52231;40.090;18.348;2023-08-31T02:27:34;13.73;;;4.10;;
65581;SDS011;52231;40.090;18.348;2023-08-31T02:30:02;14.45;;;3.95;;
65581;SDS011;52231;40.090;18.348;2023-08-31T02:32:34;13.77;;;3.97;;
65581;SDS011;52231;40.090;18.348;2023-08-31T02:37:30;11.82;;;3.75;;
65581;SDS011;52231;40.090;18.348;2023-08-31T02:42:26;16.23;;;3.45;;
65581;SDS011;52231;40.090;18.348;2023-08-31T02:44:54;11.55;;;3.55;;
65581;SDS011;52231;40.090;18.348;2023-08-31T02:47:23;14.88;;;3.95;;
65581;SDS011;52231;40.090;18.348;2023-08-31T02:52:19;15.75;;;4.85;;
65581;SDS011;52231;40.090;18.348;2023-08-31T02:57:16;16.55;;;4.28;;
65581;SDS011;52231;40.090;18.348;2023-08-31T02:59:50;13.93;;;4.15;;
65581;SDS011;52231;40.090;18.348;2023-08-31T03:02:18;13.48;;;3.85;;
65581;SDS011;52231;40.090;18.348;2023-08-31T03:04:47;13.82;;;3.72;;
65581;SDS011;52231;40.090;18.348;2023-08-31T03:07:15;14.15;;;3.75;;
65581;SDS011;52231;40.090;18.348;2023-08-31T03:09:48;13.73;;;3.60;;
65581;SDS011;52231;40.090;18.348;2023-08-31T03:12:18;15.65;;;3.75;;
65581;SDS011;52231;40.090;18.348;2023-08-31T03:14:46;15.25;;;3.25;;
65581;SDS011;52231;40.090;18.348;2023-08-31T03:17:14;18.88;;;4.28;;
65581;SDS011;52231;40.090;18.348;2023-08-31T03:19:42;15.43;;;4.78;;
65581;SDS011;52231;40.090;18.348;2023-08-31T03:22:11;12.60;;;3.58;;
65581;SDS011;52231;40.090;18.348;2023-08-31T03:24:41;10.95;;;3.50;;
65581;SDS011;52231;40.090;18.348;2023-08-31T03:27:09;16.65;;;4.03;;
65581;SDS011;52231;40.090;18.348;2023-08-31T03:29:38;11.55;;;3.88;;
65581;SDS011;52231;40.090;18.348;2023-08-31T03:32:07;15.80;;;4.40;;
65581;SDS011;52231;40.090;18.348;2023-08-31T03:34:36;15.57;;;4.53;;
65581;SDS011;52231;40.090;18.348;2023-08-31T03:37:04;12.35;;;3.58;;
65581;SDS011;52231;40.090;18.348;2023-08-31T03:39:34;14.68;;;4.50;;
65581;SDS011;52231;40.090;18.348;2023-08-31T03:42:02;14.15;;;4.40;;
65581;SDS011;52231;40.090;18.348;2023-08-31T03:44:33;13.52;;;4.88;;
65581;SDS011;52231;40.090;18.348;2023-08-31T03:47:01;18.25;;;4.78;;
65581;SDS011;52231;40.090;18.348;2023-08-31T03:49:30;16.45;;;4.55;;
65581;SDS011;52231;40.090;18.348;2023-08-31T03:51:59;13.07;;;4.97;;
65581;SDS011;52231;40.090;18.348;2023-08-31T03:54:27;15.65;;;5.10;;
65581;SDS011;52231;40.090;18.348;2023-08-31T03:56:56;14.02;;;4.72;;
65581;SDS011;52231;40.090;18.348;2023-08-31T03:59:24;13.98;;;4.32;;
65581;SDS011;52231;40.090;18.348;2023-08-31T04:01:52;13.85;;;4.10;;
65581;SDS011;52231;40.090;18.348;2023-08-31T04:04:20;14.73;;;4.80;;
65581;SDS011;52231;40.090;18.348;2023-08-31T04:06:48;14.70;;;4.32;;
65581;SDS011;52231;40.090;18.348;2023-08-31T04:09:16;14.75;;;4.43;;
65581;SDS011;52231;40.090;18.348;2023-08-31T04:11:46;13.40;;;4.55;;
65581;SDS011;52231;40.090;18.348;2023-08-31T04:14:14;15.30;;;4.63;;
65581;SDS011;52231;40.090;18.348;2023-08-31T04:16:44;17.27;;;4.32;;
65581;SDS011;52231;40.090;18.348;2023-08-31T04:19:14;13.73;;;4.07;;
65581;SDS011;52231;40.090;18.348;2023-08-31T04:21:42;10.52;;;3.90;;
65581;SDS011;52231;40.090;18.348;2023-08-31T04:24:11;16.23;;;4.57;;
65581;SDS011;52231;40.090;18.348;2023-08-31T04:26:39;15.77;;;4.57;;
65581;SDS011;52231;40.090;18.348;2023-08-31T04:29:07;14.23;;;4.90;;
65581;SDS011;52231;40.090;18.348;2023-08-31T04:31:35;13.45;;;4.45;;
65581;SDS011;52231;40.090;18.348;2023-08-31T04:34:03;14.93;;;4.40;;
65581;SDS011;52231;40.090;18.348;2023-08-31T04:36:31;13.05;;;4.18;;
65581;SDS011;52231;40.090;18.348;2023-08-31T04:38:59;15.40;;;3.83;;
65581;SDS011;52231;40.090;18.348;2023-08-31T04:41:27;14.32;;;4.47;;
65581;SDS011;52231;40.090;18.348;2023-08-31T04:43:56;20.95;;;4.63;;
65581;SDS011;52231;40.090;18.348;2023-08-31T04:46:24;13.32;;;4.38;;
65581;SDS011;52231;40.090;18.348;2023-08-31T04:48:52;15.35;;;4.00;;
65581;SDS011;52231;40.090;18.348;2023-08-31T04:51:30;14.93;;;4.18;;
65581;SDS011;52231;40.090;18.348;2023-08-31T04:54:00;15.75;;;4.38;;
65581;SDS011;52231;40.090;18.348;2023-08-31T04:56:30;16.95;;;4.90;;
65581;SDS011;52231;40.090;18.348;2023-08-31T04:59:00;43.40;;;6.78;;
65581;SDS011;52231;40.090;18.348;2023-08-31T05:01:28;69.18;;;6.65;;
65581;SDS011;52231;40.090;18.348;2023-08-31T05:06:25;42.13;;;6.40;;
65581;SDS011;52231;40.090;18.348;2023-08-31T05:08:53;24.27;;;4.93;;
65581;SDS011;52231;40.090;18.348;2023-08-31T05:11:21;24.30;;;5.13;;
65581;SDS011;52231;40.090;18.348;2023-08-31T05:13:49;23.13;;;5.35;;
65581;SDS011;52231;40.090;18.348;2023-08-31T05:16:17;18.95;;;5.45;;
65581;SDS011;52231;40.090;18.348;2023-08-31T05:18:45;15.93;;;5.38;;
65581;SDS011;52231;40.090;18.348;2023-08-31T05:21:13;16.23;;;6.18;;
65581;SDS011;52231;40.090;18.348;2023-08-31T05:23:41;23.65;;;7.13;;
65581;SDS011;52231;40.090;18.348;2023-08-31T05:26:09;21.90;;;7.65;;
65581;SDS011;52231;40.090;18.348;2023-08-31T05:31:05;21.42;;;7.93;;
65581;SDS011;52231;40.090;18.348;2023-08-31T05:33:34;21.50;;;8.27;;
65581;SDS011;52231;40.090;18.348;2023-08-31T05:36:02;24.65;;;8.27;;
65581;SDS011;52231;40.090;18.348;2023-08-31T05:38:33;24.17;;;8.52;;
65581;SDS011;52231;40.090;18.348;2023-08-31T05:41:08;22.80;;;8.10;;
65581;SDS011;52231;40.090;18.348;2023-08-31T05:43:36;19.15;;;7.32;;
65581;SDS011;52231;40.090;18.348;2023-08-31T05:46:07;22.42;;;7.32;;
65581;SDS011;52231;40.090;18.348;2023-08-31T05:48:36;19.95;;;7.30;;
65581;SDS011;52231;40.090;18.348;2023-08-31T05:51:04;17.95;;;7.32;;
65581;SDS011;52231;40.090;18.348;2023-08-31T05:53:32;17.23;;;6.70;;
65581;SDS011;52231;40.090;18.348;2023-08-31T05:56:01;20.20;;;6.40;;
65581;SDS011;52231;40.090;18.348;2023-08-31T05:58:35;15.88;;;5.90;;
65581;SDS011;52231;40.090;18.348;2023-08-31T06:01:04;16.45;;;5.75;;
65581;SDS011;52231;40.090;18.348;2023-08-31T06:03:34;17.98;;;6.00;;
65581;SDS011;52231;40.090;18.348;2023-08-31T06:06:02;14.68;;;4.78;;
65581;SDS011;52231;40.090;18.348;2023-08-31T06:08:30;20.42;;;5.78;;
65581;SDS011;52231;40.090;18.348;2023-08-31T06:10:58;17.20;;;4.93;;
65581;SDS011;52231;40.090;18.348;2023-08-31T06:13:27;16.95;;;4.75;;
65581;SDS011;52231;40.090;18.348;2023-08-31T06:18:25;20.85;;;5.10;;
65581;SDS011;52231;40.090;18.348;2023-08-31T06:20:53;18.00;;;4.70;;
65581;SDS011;52231;40.090;18.348;2023-08-31T06:25:49;14.68;;;4.55;;
65581;SDS011;52231;40.090;18.348;2023-08-31T06:28:17;15.23;;;4.50;;
65581;SDS011;52231;40.090;18.348;2023-08-31T06:33:16;14.50;;;3.92;;
65581;SDS011;52231;40.090;18.348;2023-08-31T06:35:46;10.63;;;3.83;;
65581;SDS011;52231;40.090;18.348;2023-08-31T06:38:19;11.73;;;3.88;;
65581;SDS011;52231;40.090;18.348;2023-08-31T06:40:47;14.05;;;5.28;;
65581;SDS011;52231;40.090;18.348;2023-08-31T06:45:43;17.63;;;5.38;;
65581;SDS011;52231;40.090;18.348;2023-08-31T06:48:11;17.08;;;5.22;;
65581;SDS011;52231;40.090;18.348;2023-08-31T06:50:39;17.27;;;4.57;;
65581;SDS011;52231;40.090;18.348;2023-08-31T06:53:07;12.70;;;4.25;;
65581;SDS011;52231;40.090;18.348;2023-08-31T06:58:04;11.25;;;4.22;;
65581;SDS011;52231;40.090;18.348;2023-08-31T07:00:32;14.93;;;4.40;;
65581;SDS011;52231;40.090;18.348;2023-08-31T07:03:00;11.45;;;3.92;;
65581;SDS011;52231;40.090;18.348;2023-08-31T07:05:32;14.50;;;3.90;;
65581;SDS011;52231;40.090;18.348;2023-08-31T07:08:02;12.23;;;3.92;;
65581;SDS011;52231;40.090;18.348;2023-08-31T07:10:31;12.95;;;3.30;;
65581;SDS011;52231;40.090;18.348;2023-08-31T07:15:26;11.70;;;2.50;;
65581;SDS011;52231;40.090;18.348;2023-08-31T07:17:56;10.52;;;3.30;;
65581;SDS011;52231;40.090;18.348;2023-08-31T07:20:24;13.63;;;3.45;;
65581;SDS011;52231;40.090;18.348;2023-08-31T07:22:53;12.18;;;3.20;;
65581;SDS011;52231;40.090;18.348;2023-08-31T07:25:22;12.70;;;3.25;;
65581;SDS011;52231;40.090;18.348;2023-08-31T07:27:50;11.25;;;3.33;;
65581;SDS011;52231;40.090;18.348;2023-08-31T07:30:18;12.63;;;3.33;;
65581;SDS011;52231;40.090;18.348;2023-08-31T07:32:46;11.40;;;3.30;;
65581;SDS011;52231;40.090;18.348;2023-08-31T07:35:14;11.90;;;3.40;;
65581;SDS011;52231;40.090;18.348;2023-08-31T07:37:42;14.55;;;3.70;;
65581;SDS011;52231;40.090;18.348;2023-08-31T07:42:39;11.95;;;3.15;;
65581;SDS011;52231;40.090;18.348;2023-08-31T07:45:07;11.55;;;3.92;;
65581;SDS011;52231;40.090;18.348;2023-08-31T07:47:36;12.77;;;3.83;;
65581;SDS011;52231;40.090;18.348;2023-08-31T07:50:04;12.35;;;3.95;;
65581;SDS011;52231;40.090;18.348;2023-08-31T07:52:32;12.55;;;4.25;;
65581;SDS011;52231;40.090;18.348;2023-08-31T07:55:00;12.88;;;4.00;;
65581;SDS011;52231;40.090;18.348;2023-08-31T07:57:29;11.63;;;3.30;;
65581;SDS011;52231;40.090;18.348;2023-08-31T07:59:57;11.05;;;3.60;;
65581;SDS011;52231;40.090;18.348;2023-08-31T08:02:25;10.10;;;3.17;;
65581;SDS011;52231;40.090;18.348;2023-08-31T08:04:53;8.68;;;3.05;;
65581;SDS011;52231;40.090;18.348;2023-08-31T08:07:21;12.98;;;3.40;;
65581;SDS011;52231;40.090;18.348;2023-08-31T08:09:49;10.25;;;3.20;;
65581;SDS011;52231;40.090;18.348;2023-08-31T08:12:17;11.93;;;3.03;;
65581;SDS011;52231;40.090;18.348;2023-08-31T08:14:45;8.88;;;3.40;;
65581;SDS011;52231;40.090;18.348;2023-08-31T08:17:13;13.57;;;5.07;;
65581;SDS011;52231;40.090;18.348;2023-08-31T08:19:41;11.45;;;4.00;;
65581;SDS011;52231;40.090;18.348;2023-08-31T08:22:09;10.63;;;3.40;;
65581;SDS011;52231;40.090;18.348;2023-08-31T08:24:37;13.23;;;3.80;;
65581;SDS011;52231;40.090;18.348;2023-08-31T08:27:07;11.93;;;3.63;;
65581;SDS011;52231;40.090;18.348;2023-08-31T08:29:35;9.60;;;2.85;;
65581;SDS011;52231;40.090;18.348;2023-08-31T08:32:03;9.13;;;3.40;;
65581;SDS011;52231;40.090;18.348;2023-08-31T08:34:32;11.98;;;2.83;;
65581;SDS011;52231;40.090;18.348;2023-08-31T08:37:00;9.35;;;2.63;;
65581;SDS011;52231;40.090;18.348;2023-08-31T08:39:28;8.57;;;2.78;;
65581;SDS011;52231;40.090;18.348;2023-08-31T08:42:00;11.55;;;3.60;;
65581;SDS011;52231;40.090;18.348;2023-08-31T08:44:34;8.07;;;2.90;;
65581;SDS011;52231;40.090;18.348;2023-08-31T08:47:03;11.55;;;3.05;;
65581;SDS011;52231;40.090;18.348;2023-08-31T08:49:32;10.45;;;3.05;;
65581;SDS011;52231;40.090;18.348;2023-08-31T08:52:03;10.65;;;2.90;;
65581;SDS011;52231;40.090;18.348;2023-08-31T08:54:33;9.80;;;3.15;;
65581;SDS011;52231;40.090;18.348;2023-08-31T08:57:03;12.90;;;3.10;;
65581;SDS011;52231;40.090;18.348;2023-08-31T08:59:32;8.35;;;2.80;;
65581;SDS011;52231;40.090;18.348;2023-08-31T09:02:00;9.20;;;2.92;;
65581;SDS011;52231;40.090;18.348;2023-08-31T09:04:29;12.30;;;3.15;;
65581;SDS011;52231;40.090;18.348;2023-08-31T09:06:58;7.07;;;2.80;;
65581;SDS011;52231;40.090;18.348;2023-08-31T09:09:26;10.73;;;3.17;;
65581;SDS011;52231;40.090;18.348;2023-08-31T09:11:54;9.73;;;2.92;;
65581;SDS011;52231;40.090;18.348;2023-08-31T09:14:25;10.02;;;3.13;;
65581;SDS011;52231;40.090;18.348;2023-08-31T09:16:53;8.30;;;2.60;;
65581;SDS011;52231;40.090;18.348;2023-08-31T09:19:25;9.88;;;2.80;;
65581;SDS011;52231;40.090;18.348;2023-08-31T09:21:56;11.63;;;2.75;;
65581;SDS011;52231;40.090;18.348;2023-08-31T09:24:24;9.00;;;2.72;;
65581;SDS011;52231;40.090;18.348;2023-08-31T09:26:53;10.30;;;3.33;;
65581;SDS011;52231;40.090;18.348;2023-08-31T09:29:24;7.25;;;2.97;;
65581;SDS011;52231;40.090;18.348;2023-08-31T09:31:52;9.65;;;3.35;;
65581;SDS011;52231;40.090;18.348;2023-08-31T09:34:20;8.93;;;3.40;;
65581;SDS011;52231;40.090;18.348;2023-08-31T09:36:48;8.65;;;2.67;;
65581;SDS011;52231;40.090;18.348;2023-08-31T09:39:17;10.75;;;3.15;;
65581;SDS011;52231;40.090;18.348;2023-08-31T09:41:52;9.38;;;3.10;;
65581;SDS011;52231;40.090;18.348;2023-08-31T09:44:21;11.48;;;3.30;;
65581;SDS011;52231;40.090;18.348;2023-08-31T09:46:49;10.60;;;3.13;;
65581;SDS011;52231;40.090;18.348;2023-08-31T09:49:19;8.50;;;2.75;;
65581;SDS011;52231;40.090;18.348;2023-08-31T09:51:49;10.50;;;2.95;;
65581;SDS011;52231;40.090;18.348;2023-08-31T09:54:20;9.35;;;3.20;;
65581;SDS011;52231;40.090;18.348;2023-08-31T09:56:53;8.63;;;2.78;;
65581;SDS011;52231;40.090;18.348;2023-08-31T09:59:26;9.75;;;2.92;;
65581;SDS011;52231;40.090;18.348;2023-08-31T10:01:55;10.48;;;3.20;;
65581;SDS011;52231;40.090;18.348;2023-08-31T10:04:23;11.98;;;3.28;;
65581;SDS011;52231;40.090;18.348;2023-08-31T10:06:52;9.27;;;2.92;;
65581;SDS011;52231;40.090;18.348;2023-08-31T10:09:21;8.75;;;2.67;;
65581;SDS011;52231;40.090;18.348;2023-08-31T10:11:49;11.23;;;3.08;;
65581;SDS011;52231;40.090;18.348;2023-08-31T10:14:17;13.88;;;3.38;;
65581;SDS011;52231;40.090;18.348;2023-08-31T10:16:48;9.93;;;3.10;;
65581;SDS011;52231;40.090;18.348;2023-08-31T10:19:20;8.25;;;2.80;;
65581;SDS011;52231;40.090;18.348;2023-08-31T10:21:48;9.52;;;3.03;;
65581;SDS011;52231;40.090;18.348;2023-08-31T10:24:17;10.50;;;3.13;;
65581;SDS011;52231;40.090;18.348;2023-08-31T10:26:45;8.43;;;2.70;;
65581;SDS011;52231;40.090;18.348;2023-08-31T10:29:26;8.85;;;2.85;;
65581;SDS011;52231;40.090;18.348;2023-08-31T10:32:00;11.20;;;2.75;;
65581;SDS011;52231;40.090;18.348;2023-08-31T10:34:34;8.38;;;2.80;;
65581;SDS011;52231;40.090;18.348;2023-08-31T10:37:19;8.75;;;2.97;;
65581;SDS011;52231;40.090;18.348;2023-08-31T12:32:11;9.60;;;2.75;;
65581;SDS011;52231;40.090;18.348;2023-08-31T12:34:40;8.25;;;2.55;;
65581;SDS011;52231;40.090;18.348;2023-08-31T12:37:08;9.38;;;2.90;;
65581;SDS011;52231;40.090;18.348;2023-08-31T12:39:36;7.30;;;2.65;;
65581;SDS011;52231;40.090;18.348;2023-08-31T12:42:05;11.45;;;2.90;;
65581;SDS011;52231;40.090;18.348;2023-08-31T12:44:39;7.55;;;2.90;;
65581;SDS011;52231;40.090;18.348;2023-08-31T12:47:07;10.88;;;3.70;;
65581;SDS011;52231;40.090;18.348;2023-08-31T12:49:35;9.65;;;3.13;;
65581;SDS011;52231;40.090;18.348;2023-08-31T12:52:04;7.10;;;2.60;;
65581;SDS011;52231;40.090;18.348;2023-08-31T12:54:33;9.50;;;3.42;;
65581;SDS011;52231;40.090;18.348;2023-08-31T12:57:01;10.68;;;4.50;;
65581;SDS011;52231;40.090;18.348;2023-08-31T12:59:30;8.60;;;3.15;;
65581;SDS011;52231;40.090;18.348;2023-08-31T13:01:58;8.50;;;3.10;;
65581;SDS011;52231;40.090;18.348;2023-08-31T13:04:27;9.80;;;3.38;;
65581;SDS011;52231;40.090;18.348;2023-08-31T13:06:56;9.00;;;2.65;;
65581;SDS011;52231;40.090;18.348;2023-08-31T13:09:24;8.15;;;2.90;;
65581;SDS011;52231;40.090;18.348;2023-08-31T13:11:52;7.13;;;2.50;;
65581;SDS011;52231;40.090;18.348;2023-08-31T13:14:21;8.20;;;2.90;;
65581;SDS011;52231;40.090;18.348;2023-08-31T13:16:49;8.13;;;3.13;;
65581;SDS011;52231;40.090;18.348;2023-08-31T13:19:17;8.35;;;3.08;;
65581;SDS011;52231;40.090;18.348;2023-08-31T13:21:45;9.30;;;3.30;;
65581;SDS011;52231;40.090;18.348;2023-08-31T13:24:14;7.55;;;2.88;;
65581;SDS011;52231;40.090;18.348;2023-08-31T13:26:43;9.85;;;2.72;;
65581;SDS011;52231;40.090;18.348;2023-08-31T13:29:15;10.75;;;2.97;;
65581;SDS011;52231;40.090;18.348;2023-08-31T13:31:44;9.57;;;3.03;;
65581;SDS011;52231;40.090;18.348;2023-08-31T13:34:12;9.88;;;3.20;;
65581;SDS011;52231;40.090;18.348;2023-08-31T13:36:43;6.82;;;2.78;;
65581;SDS011;52231;40.090;18.348;2023-08-31T13:39:11;9.45;;;3.05;;
65581;SDS011;52231;40.090;18.348;2023-08-31T13:41:39;7.47;;;2.70;;
65581;SDS011;52231;40.090;18.348;2023-08-31T13:44:08;10.82;;;2.97;;
65581;SDS011;52231;40.090;18.348;2023-08-31T13:46:36;12.50;;;4.40;;
65581;SDS011;52231;40.090;18.348;2023-08-31T13:49:04;10.43;;;4.28;;
65581;SDS011;52231;40.090;18.348;2023-08-31T13:51:33;9.43;;;2.90;;
65581;SDS011;52231;40.090;18.348;2023-08-31T13:54:02;10.63;;;3.10;;
65581;SDS011;52231;40.090;18.348;2023-08-31T13:56:34;7.65;;;2.50;;
65581;SDS011;52231;40.090;18.348;2023-08-31T13:59:03;10.15;;;2.70;;
65581;SDS011;52231;40.090;18.348;2023-08-31T14:01:31;8.18;;;2.92;;
65581;SDS011;52231;40.090;18.348;2023-08-31T14:04:00;7.93;;;2.85;;
65581;SDS011;52231;40.090;18.348;2023-08-31T14:06:31;10.10;;;2.90;;
65581;SDS011;52231;40.090;18.348;2023-08-31T14:08:59;11.27;;;3.80;;
65581;SDS011;52231;40.090;18.348;2023-08-31T14:11:28;7.75;;;2.92;;
65581;SDS011;52231;40.090;18.348;2023-08-31T14:14:04;9.32;;;2.95;;
65581;SDS011;52231;40.090;18.348;2023-08-31T14:16:33;7.97;;;2.83;;
65581;SDS011;52231;40.090;18.348;2023-08-31T14:19:04;9.25;;;3.08;;
65581;SDS011;52231;40.090;18.348;2023-08-31T14:21:33;8.13;;;2.92;;
65581;SDS011;52231;40.090;18.348;2023-08-31T14:24:01;10.88;;;3.20;;
65581;SDS011;52231;40.090;18.348;2023-08-31T14:26:30;8.05;;;2.70;;
65581;SDS011;52231;40.090;18.348;2023-08-31T14:28:58;12.38;;;5.40;;
65581;SDS011;52231;40.090;18.348;2023-08-31T14:31:26;13.20;;;5.15;;
65581;SDS011;52231;40.090;18.348;2023-08-31T14:33:55;10.93;;;3.00;;
65581;SDS011;52231;40.090;18.348;2023-08-31T14:36:25;8.77;;;3.05;;
65581;SDS011;52231;40.090;18.348;2023-08-31T14:38:54;10.25;;;3.00;;
65581;SDS011;52231;40.090;18.348;2023-08-31T14:41:23;9.73;;;3.05;;
65581;SDS011;52231;40.090;18.348;2023-08-31T14:43:51;10.32;;;2.83;;
65581;SDS011;52231;40.090;18.348;2023-08-31T14:46:19;10.90;;;2.85;;
65581;SDS011;52231;40.090;18.348;2023-08-31T14:48:50;8.52;;;2.78;;
65581;SDS011;52231;40.090;18.348;2023-08-31T14:51:19;11.88;;;3.90;;
65581;SDS011;52231;40.090;18.348;2023-08-31T14:53:47;9.75;;;3.30;;
65581;SDS011;52231;40.090;18.348;2023-08-31T14:56:15;10.65;;;3.20;;
65581;SDS011;52231;40.090;18.348;2023-08-31T14:58:44;8.57;;;2.95;;
65581;SDS011;52231;40.090;18.348;2023-08-31T15:01:12;11.82;;;3.47;;
65581;SDS011;52231;40.090;18.348;2023-08-31T15:03:40;10.02;;;3.25;;
65581;SDS011;52231;40.090;18.348;2023-08-31T15:06:09;13.40;;;3.67;;
65581;SDS011;52231;40.090;18.348;2023-08-31T15:08:38;10.25;;;3.80;;
65581;SDS011;52231;40.090;18.348;2023-08-31T15:11:27;10.30;;;3.38;;
65581;SDS011;52231;40.090;18.348;2023-08-31T15:13:56;11.20;;;3.65;;
65581;SDS011;52231;40.090;18.348;2023-08-31T15:16:24;14.07;;;4.20;;
65581;SDS011;52231;40.090;18.348;2023-08-31T15:18:53;11.05;;;3.80;;
65581;SDS011;52231;40.090;18.348;2023-08-31T15:21:21;9.68;;;3.28;;
65581;SDS011;52231;40.090;18.348;2023-08-31T15:23:49;9.25;;;3.30;;
65581;SDS011;52231;40.090;18.348;2023-08-31T15:26:18;10.95;;;3.42;;
65581;SDS011;52231;40.090;18.348;2023-08-31T15:28:46;10.52;;;3.35;;
65581;SDS011;52231;40.090;18.348;2023-08-31T15:31:14;9.98;;;2.95;;
65581;SDS011;52231;40.090;18.348;2023-08-31T15:33:43;12.55;;;3.17;;
65581;SDS011;52231;40.090;18.348;2023-08-31T15:36:12;16.80;;;4.22;;
65581;SDS011;52231;40.090;18.348;2023-08-31T15:38:41;9.48;;;3.67;;
65581;SDS011;52231;40.090;18.348;2023-08-31T15:41:09;8.93;;;2.97;;
65581;SDS011;52231;40.090;18.348;2023-08-31T15:43:37;10.02;;;3.05;;
65581;SDS011;52231;40.090;18.348;2023-08-31T15:46:06;8.35;;;2.97;;
65581;SDS011;52231;40.090;18.348;2023-08-31T15:48:35;9.32;;;2.88;;
65581;SDS011;52231;40.090;18.348;2023-08-31T15:51:04;9.63;;;3.13;;
65581;SDS011;52231;40.090;18.348;2023-08-31T15:53:33;9.55;;;3.00;;
65581;SDS011;52231;40.090;18.348;2023-08-31T15:56:01;10.15;;;3.40;;
65581;SDS011;52231;40.090;18.348;2023-08-31T15:58:31;9.13;;;2.90;;
65581;SDS011;52231;40.090;18.348;2023-08-31T16:00:59;11.00;;;3.10;;
65581;SDS011;52231;40.090;18.348;2023-08-31T16:03:30;11.05;;;3.65;;
65581;SDS011;52231;40.090;18.348;2023-08-31T16:06:00;10.07;;;3.35;;
65581;SDS011;52231;40.090;18.348;2023-08-31T16:08:28;9.88;;;3.22;;
65581;SDS011;52231;40.090;18.348;2023-08-31T16:10:57;11.35;;;3.33;;
65581;SDS011;52231;40.090;18.348;2023-08-31T16:13:26;7.53;;;3.13;;
65581;SDS011;52231;40.090;18.348;2023-08-31T16:15:54;10.48;;;3.10;;
65581;SDS011;52231;40.090;18.348;2023-08-31T16:18:23;9.60;;;3.15;;
65581;SDS011;52231;40.090;18.348;2023-08-31T16:20:53;13.00;;;3.00;;
65581;SDS011;52231;40.090;18.348;2023-08-31T16:23:21;8.75;;;2.90;;
65581;SDS011;52231;40.090;18.348;2023-08-31T16:25:49;10.30;;;3.08;;
65581;SDS011;52231;40.090;18.348;2023-08-31T16:28:18;13.55;;;3.33;;
65581;SDS011;52231;40.090;18.348;2023-08-31T16:30:46;11.80;;;3.15;;
65581;SDS011;52231;40.090;18.348;2023-08-31T16:33:14;12.52;;;3.33;;
65581;SDS011;52231;40.090;18.348;2023-08-31T16:35:44;9.85;;;2.90;;
65581;SDS011;52231;40.090;18.348;2023-08-31T16:38:12;11.00;;;2.85;;
65581;SDS011;52231;40.090;18.348;2023-08-31T16:40:42;10.40;;;3.22;;
65581;SDS011;52231;40.090;18.348;2023-08-31T16:43:12;12.20;;;3.15;;
65581;SDS011;52231;40.090;18.348;2023-08-31T16:45:40;11.55;;;2.95;;
65581;SDS011;52231;40.090;18.348;2023-08-31T16:48:08;11.25;;;3.00;;
65581;SDS011;52231;40.090;18.348;2023-08-31T16:50:36;12.20;;;3.60;;
65581;SDS011;52231;40.090;18.348;2023-08-31T16:53:04;10.65;;;3.10;;
65581;SDS011;52231;40.090;18.348;2023-08-31T16:55:33;13.57;;;2.85;;
65581;SDS011;52231;40.090;18.348;2023-08-31T16:58:08;11.40;;;2.95;;
65581;SDS011;52231;40.090;18.348;2023-08-31T17:00:36;10.55;;;3.13;;
65581;SDS011;52231;40.090;18.348;2023-08-31T17:03:04;10.70;;;2.90;;
65581;SDS011;52231;40.090;18.348;2023-08-31T17:05:33;10.20;;;3.40;;
65581;SDS011;52231;40.090;18.348;2023-08-31T17:08:01;16.83;;;4.18;;
65581;SDS011;52231;40.090;18.348;2023-08-31T17:10:30;10.80;;;3.33;;
65581;SDS011;52231;40.090;18.348;2023-08-31T17:12:58;9.90;;;3.10;;
65581;SDS011;52231;40.090;18.348;2023-08-31T17:15:28;10.20;;;3.20;;
65581;SDS011;52231;40.090;18.348;2023-08-31T17:17:58;11.02;;;3.38;;
65581;SDS011;52231;40.090;18.348;2023-08-31T17:20:26;12.05;;;3.25;;
65581;SDS011;52231;40.090;18.348;2023-08-31T17:22:57;10.93;;;3.72;;
65581;SDS011;52231;40.090;18.348;2023-08-31T17:25:27;12.60;;;3.40;;
65581;SDS011;52231;40.090;18.348;2023-08-31T17:27:55;10.35;;;3.35;;